createdAt,value
2022-09-21T00:01:45.604Z,13.40
2022-09-21T00:04:34.084Z,13.40
2022-09-21T00:07:22.474Z,13.40
2022-09-21T00:10:11.352Z,13.30
2022-09-21T00:13:00.180Z,13.30
2022-09-21T00:15:48.507Z,13.20
2022-09-21T00:18:38.271Z,13.20
2022-09-21T00:21:28.121Z,13.20
2022-09-21T00:24:16.546Z,13.20
2022-09-21T00:27:05.200Z,13.10
2022-09-21T00:29:54.027Z,13.10
2022-09-21T00:32:42.648Z,13.10
2022-09-21T00:35:33.467Z,13.00
2022-09-21T00:38:21.803Z,12.90
2022-09-21T00:41:11.120Z,12.90
2022-09-21T00:44:25.023Z,12.80
2022-09-21T00:47:14.401Z,12.70
2022-09-21T00:50:06.267Z,12.70
2022-09-21T00:52:58.094Z,12.60
2022-09-21T00:55:49.314Z,12.50
2022-09-21T00:58:40.517Z,12.40
2022-09-21T01:01:28.859Z,12.30
2022-09-21T01:04:18.887Z,12.30
2022-09-21T01:07:12.362Z,12.20
2022-09-21T01:10:05.195Z,12.10
2022-09-21T01:13:05.380Z,12.10
2022-09-21T01:15:56.981Z,12.00
2022-09-21T01:18:47.753Z,11.90
2022-09-21T01:21:36.541Z,11.90
2022-09-21T01:24:40.333Z,11.80
2022-09-21T01:27:50.061Z,11.80
2022-09-21T01:30:39.757Z,11.80
2022-09-21T01:33:30.225Z,11.80
2022-09-21T01:36:21.221Z,11.80
2022-09-21T01:39:12.434Z,11.70
2022-09-21T01:42:00.808Z,11.80
2022-09-21T01:44:49.166Z,11.80
2022-09-21T01:47:39.894Z,11.80
2022-09-21T01:50:31.347Z,11.80
2022-09-21T01:53:24.037Z,11.80
2022-09-21T01:56:14.388Z,11.80
2022-09-21T01:59:07.530Z,11.90
2022-09-21T02:01:59.983Z,11.90
2022-09-21T02:04:49.816Z,11.90
2022-09-21T02:07:38.411Z,11.90
2022-09-21T02:10:31.318Z,11.90
2022-09-21T02:13:20.489Z,11.90
2022-09-21T02:16:30.248Z,11.90
2022-09-21T02:19:23.715Z,11.90
2022-09-21T02:22:16.978Z,12.00
2022-09-21T02:25:09.331Z,12.00
2022-09-21T02:28:01.023Z,12.00
2022-09-21T02:30:54.127Z,12.00
2022-09-21T02:33:48.416Z,12.00
2022-09-21T02:36:42.083Z,12.00
2022-09-21T02:39:34.715Z,12.00
2022-09-21T02:42:26.723Z,11.90
2022-09-21T02:45:17.026Z,11.90
2022-09-21T02:48:08.499Z,11.90
2022-09-21T02:50:59.401Z,11.90
2022-09-21T02:53:48.212Z,11.90
2022-09-21T02:56:37.944Z,11.80
2022-09-21T02:59:26.663Z,11.80
2022-09-21T03:02:15.419Z,11.70
2022-09-21T03:05:03.971Z,11.70
2022-09-21T03:07:52.326Z,11.70
2022-09-21T03:10:40.709Z,11.70
2022-09-21T03:13:30.500Z,11.70
2022-09-21T03:16:18.913Z,11.60
2022-09-21T03:19:07.470Z,11.60
2022-09-21T03:21:55.930Z,11.60
2022-09-21T03:24:47.364Z,11.60
2022-09-21T03:27:36.038Z,11.60
2022-09-21T03:30:26.856Z,11.60
2022-09-21T03:33:15.219Z,11.60
2022-09-21T03:36:04.133Z,11.60
2022-09-21T03:38:52.472Z,11.60
2022-09-21T03:41:41.222Z,11.60
2022-09-21T03:44:29.719Z,11.60
2022-09-21T03:47:20.678Z,11.60
2022-09-21T03:50:10.457Z,11.60
2022-09-21T03:52:58.881Z,11.60
2022-09-21T03:55:47.263Z,11.60
2022-09-21T03:58:35.633Z,11.60
2022-09-21T04:01:24.013Z,11.60
2022-09-21T04:04:13.774Z,11.60
2022-09-21T04:07:02.235Z,11.60
2022-09-21T04:09:50.609Z,11.60
2022-09-21T04:12:38.983Z,11.60
2022-09-21T04:15:27.457Z,11.60
2022-09-21T04:18:15.849Z,11.60
2022-09-21T04:21:06.305Z,11.60
2022-09-21T04:23:54.828Z,11.60
2022-09-21T04:26:43.238Z,11.60
2022-09-21T04:29:31.584Z,11.60
2022-09-21T04:32:20.050Z,11.60
2022-09-21T04:35:09.505Z,11.60
2022-09-21T04:37:59.677Z,11.60
2022-09-21T04:40:57.043Z,11.60
2022-09-21T04:43:45.694Z,11.60
2022-09-21T04:46:34.179Z,11.70
2022-09-21T04:49:22.626Z,11.70
2022-09-21T04:52:12.213Z,11.70
2022-09-21T04:55:03.469Z,11.70
2022-09-21T04:57:51.790Z,11.80
2022-09-21T05:00:40.342Z,11.80
2022-09-21T05:03:28.833Z,11.80
2022-09-21T05:06:17.254Z,11.80
2022-09-21T05:09:23.084Z,11.80
2022-09-21T05:12:12.809Z,11.80
2022-09-21T05:15:01.220Z,11.90
2022-09-21T05:17:49.598Z,11.90
2022-09-21T05:20:38.010Z,11.90
2022-09-21T05:23:26.519Z,11.90
2022-09-21T05:26:14.893Z,11.90
2022-09-21T05:29:05.948Z,11.90
2022-09-21T05:31:58.477Z,11.90
2022-09-21T05:34:58.155Z,11.90
2022-09-21T05:37:51.820Z,12.00
2022-09-21T05:40:40.916Z,12.00
2022-09-21T05:43:30.093Z,12.10
2022-09-21T05:46:22.079Z,12.10
2022-09-21T05:49:18.359Z,12.10
2022-09-21T05:52:12.299Z,12.10
2022-09-21T05:55:05.540Z,12.10
2022-09-21T05:57:58.041Z,12.10
2022-09-21T06:00:54.707Z,12.10
2022-09-21T06:03:45.400Z,12.10
2022-09-21T06:06:13.556Z,12.10
2022-09-21T06:08:41.705Z,12.20
2022-09-21T06:11:09.939Z,12.50
2022-09-21T06:13:38.439Z,12.80
2022-09-21T06:16:07.973Z,13.10
2022-09-21T06:18:39.331Z,13.60
2022-09-21T06:21:08.994Z,14.00
2022-09-21T06:23:37.458Z,14.50
2022-09-21T06:26:06.043Z,14.90
2022-09-21T06:28:34.231Z,15.30
2022-09-21T06:31:02.475Z,15.80
2022-09-21T06:33:30.950Z,16.20
2022-09-21T06:36:00.003Z,16.60
2022-09-21T06:38:30.050Z,17.00
2022-09-21T06:41:02.646Z,17.30
2022-09-21T06:43:30.834Z,17.70
2022-09-21T06:46:00.394Z,18.10
2022-09-21T06:48:28.773Z,18.40
2022-09-21T06:50:59.345Z,18.70
2022-09-21T06:53:29.599Z,18.90
2022-09-21T06:56:02.705Z,19.00
2022-09-21T06:58:31.824Z,19.10
2022-09-21T07:01:00.063Z,19.30
2022-09-21T07:03:28.246Z,19.50
2022-09-21T07:05:56.353Z,19.70
2022-09-21T07:11:14.034Z,20.30
2022-09-21T07:13:42.456Z,20.60
2022-09-21T07:16:10.929Z,20.90
2022-09-21T07:18:43.636Z,21.10
2022-09-21T07:21:12.840Z,21.40
2022-09-21T07:23:40.984Z,21.60
2022-09-21T07:26:10.377Z,21.70
2022-09-21T07:28:39.967Z,21.70
2022-09-21T07:31:09.170Z,21.60
2022-09-21T07:33:37.381Z,21.50
2022-09-21T07:36:10.188Z,21.40
2022-09-21T07:38:39.677Z,21.30
2022-09-21T07:41:08.109Z,21.20
2022-09-21T07:43:39.264Z,21.10
2022-09-21T07:46:09.228Z,21.00
2022-09-21T07:48:37.618Z,20.90
2022-09-21T07:51:06.787Z,20.80
2022-09-21T07:53:35.159Z,20.70
2022-09-21T07:56:04.389Z,20.70
2022-09-21T07:58:50.256Z,20.60
2022-09-21T08:01:19.707Z,20.50
2022-09-21T08:03:50.395Z,20.50
2022-09-21T08:06:19.057Z,20.40
2022-09-21T08:08:47.958Z,20.40
2022-09-21T08:11:16.097Z,20.40
2022-09-21T08:13:44.129Z,20.40
2022-09-21T08:16:12.251Z,20.40
2022-09-21T08:18:42.446Z,20.50
2022-09-21T08:21:12.225Z,20.50
2022-09-21T08:23:42.787Z,20.50
2022-09-21T08:26:16.350Z,20.50
2022-09-21T08:28:44.423Z,20.50
2022-09-21T08:31:12.451Z,20.40
2022-09-21T08:33:41.986Z,20.40
2022-09-21T08:36:10.338Z,20.20
2022-09-21T08:38:39.355Z,20.30
2022-09-21T08:41:16.321Z,20.30
2022-09-21T08:43:45.555Z,20.20
2022-09-21T08:46:16.818Z,20.10
2022-09-21T08:48:49.469Z,20.10
2022-09-21T08:51:22.776Z,20.00
2022-09-21T08:53:52.581Z,19.90
2022-09-21T08:56:20.757Z,19.80
2022-09-21T08:58:48.865Z,19.70
2022-09-21T09:01:34.906Z,19.70
2022-09-21T09:04:22.184Z,19.60
2022-09-21T09:06:53.716Z,19.70
2022-09-21T09:09:31.636Z,19.70
2022-09-21T09:12:14.826Z,19.70
2022-09-21T09:14:59.559Z,19.70
2022-09-21T09:17:36.217Z,19.70
2022-09-21T09:20:09.340Z,19.70
2022-09-21T09:22:41.416Z,19.80
2022-09-21T09:25:18.489Z,19.80
2022-09-21T09:27:46.593Z,19.80
2022-09-21T09:30:18.603Z,19.80
2022-09-21T09:32:52.385Z,19.80
2022-09-21T09:35:27.297Z,19.90
2022-09-21T09:37:58.927Z,20.00
2022-09-21T09:40:40.683Z,20.10
2022-09-21T09:43:09.981Z,20.10
2022-09-21T09:45:51.847Z,20.30
2022-09-21T09:48:32.798Z,20.40
2022-09-21T09:51:02.217Z,20.50
2022-09-21T09:53:30.274Z,20.70
2022-09-21T09:55:58.938Z,20.80
2022-09-21T09:58:39.374Z,20.80
2022-09-21T10:01:07.470Z,20.90
2022-09-21T10:03:36.089Z,21.00
2022-09-21T10:06:05.849Z,21.20
2022-09-21T10:08:47.328Z,21.30
2022-09-21T10:11:16.550Z,21.30
2022-09-21T10:13:46.260Z,21.40
2022-09-21T10:16:15.970Z,21.40
2022-09-21T10:18:48.378Z,21.40
2022-09-21T10:21:21.338Z,21.50
2022-09-21T10:23:50.593Z,21.60
2022-09-21T10:26:18.690Z,21.70
2022-09-21T10:28:58.047Z,21.70
2022-09-21T10:31:27.100Z,21.80
2022-09-21T10:34:06.227Z,21.80
2022-09-21T10:36:37.152Z,21.80
2022-09-21T10:39:20.557Z,21.80
2022-09-21T10:41:54.203Z,21.80
2022-09-21T10:44:24.478Z,21.80
2022-09-21T10:46:52.793Z,21.90
2022-09-21T10:49:24.336Z,21.90
2022-09-21T10:51:55.906Z,22.10
2022-09-21T10:54:26.966Z,22.10
2022-09-21T10:56:57.974Z,22.10
2022-09-21T10:59:28.513Z,22.20
2022-09-21T11:01:57.923Z,22.30
2022-09-21T11:04:38.355Z,22.30
2022-09-21T11:07:14.366Z,22.30
2022-09-21T11:09:46.430Z,22.30
2022-09-21T11:12:36.368Z,22.30
2022-09-21T11:15:15.178Z,22.30
2022-09-21T11:17:46.827Z,22.40
2022-09-21T11:20:26.391Z,22.50
2022-09-21T11:23:04.149Z,22.60
2022-09-21T11:25:40.035Z,22.80
2022-09-21T11:28:14.603Z,22.80
2022-09-21T11:31:11.704Z,22.90
2022-09-21T11:33:55.698Z,23.00
2022-09-21T11:36:29.496Z,23.10
2022-09-21T11:39:03.932Z,23.20
2022-09-21T11:41:46.553Z,23.30
2022-09-21T11:44:24.054Z,23.50
2022-09-21T11:47:00.126Z,23.60
2022-09-21T11:50:19.588Z,23.80
2022-09-21T11:52:55.918Z,23.90
2022-09-21T11:55:38.375Z,24.00
2022-09-21T11:58:10.558Z,24.10
2022-09-21T12:00:46.001Z,24.10
2022-09-21T12:03:42.051Z,24.10
2022-09-21T12:06:27.968Z,24.10
2022-09-21T12:09:11.784Z,24.00
2022-09-21T12:11:43.828Z,24.00
2022-09-21T12:14:22.409Z,23.90
2022-09-21T12:16:56.364Z,24.00
2022-09-21T12:19:33.018Z,24.00
2022-09-21T12:22:04.896Z,24.10
2022-09-21T12:24:35.931Z,24.20
2022-09-21T12:27:09.475Z,24.40
2022-09-21T12:29:41.161Z,24.60
2022-09-21T12:32:20.751Z,24.70
2022-09-21T12:34:52.550Z,24.90
2022-09-21T12:37:24.647Z,25.10
2022-09-21T12:39:56.611Z,25.20
2022-09-21T12:42:34.748Z,25.10
2022-09-21T12:45:07.308Z,25.30
2022-09-21T12:47:47.820Z,25.40
2022-09-21T12:50:21.528Z,25.40
2022-09-21T12:52:49.913Z,25.30
2022-09-21T12:55:38.750Z,25.20
2022-09-21T12:58:15.828Z,25.00
2022-09-21T13:00:56.957Z,24.80
2022-09-21T13:03:30.580Z,24.70
2022-09-21T13:06:22.042Z,24.70
2022-09-21T13:11:23.216Z,24.60
2022-09-21T13:13:54.886Z,24.60
2022-09-21T13:16:27.470Z,24.70
2022-09-21T13:18:56.905Z,24.70
2022-09-21T13:21:27.888Z,24.60
2022-09-21T13:24:00.289Z,24.60
2022-09-21T13:26:37.241Z,24.60
2022-09-21T13:29:31.385Z,24.50
2022-09-21T13:32:00.705Z,24.50
2022-09-21T13:34:36.402Z,24.50
2022-09-21T13:37:30.424Z,24.50
2022-09-21T13:40:45.843Z,24.50
2022-09-21T13:43:25.498Z,24.60
2022-09-21T13:45:59.528Z,24.60
2022-09-21T13:48:29.329Z,24.70
2022-09-21T13:51:02.917Z,24.80
2022-09-21T13:53:35.759Z,24.80
2022-09-21T13:56:10.208Z,24.90
2022-09-21T13:58:43.745Z,25.00
2022-09-21T14:01:42.389Z,25.00
2022-09-21T14:04:21.067Z,25.00
2022-09-21T14:06:50.186Z,25.10
2022-09-21T14:09:25.710Z,25.10
2022-09-21T14:11:58.965Z,25.00
2022-09-21T14:14:29.617Z,24.90
2022-09-21T14:16:59.893Z,24.90
2022-09-21T14:20:07.657Z,24.80
2022-09-21T14:22:38.792Z,24.70
2022-09-21T14:25:50.998Z,24.70
2022-09-21T14:28:22.568Z,24.60
2022-09-21T14:30:55.505Z,24.70
2022-09-21T14:33:33.680Z,24.70
2022-09-21T14:36:03.556Z,24.70
2022-09-21T14:38:42.861Z,24.70
2022-09-21T14:41:16.433Z,24.70
2022-09-21T14:43:45.309Z,24.80
2022-09-21T14:46:35.626Z,24.80
2022-09-21T14:49:18.692Z,24.90
2022-09-21T14:54:46.428Z,25.00
2022-09-21T14:57:37.109Z,25.10
2022-09-21T15:00:23.296Z,25.10
2022-09-21T15:03:07.987Z,25.10
2022-09-21T15:05:38.821Z,25.10
2022-09-21T15:08:42.274Z,25.10
2022-09-21T15:11:13.706Z,25.00
2022-09-21T15:14:14.646Z,24.90
2022-09-21T15:16:45.680Z,24.90
2022-09-21T15:19:21.768Z,24.80
2022-09-21T15:21:52.524Z,24.80
2022-09-21T15:24:34.004Z,24.70
2022-09-21T15:27:09.137Z,24.70
2022-09-21T15:29:37.346Z,24.70
2022-09-21T15:32:06.118Z,24.60
2022-09-21T15:34:34.325Z,24.50
2022-09-21T15:37:16.479Z,24.50
2022-09-21T15:39:45.049Z,24.40
2022-09-21T15:42:19.550Z,24.30
2022-09-21T15:44:50.667Z,24.30
2022-09-21T15:47:21.339Z,24.20
2022-09-21T15:49:50.849Z,24.10
2022-09-21T15:52:29.064Z,24.00
2022-09-21T15:54:59.307Z,23.90
2022-09-21T15:57:38.919Z,23.90
2022-09-21T16:00:20.359Z,23.80
2022-09-21T16:03:04.456Z,23.70
2022-09-21T16:05:45.002Z,23.70
2022-09-21T16:08:23.481Z,23.60
2022-09-21T16:10:51.780Z,23.50
2022-09-21T16:13:38.378Z,23.50
2022-09-21T16:16:07.891Z,23.40
2022-09-21T16:18:44.515Z,23.30
2022-09-21T16:21:24.330Z,23.30
2022-09-21T16:23:56.012Z,23.20
2022-09-21T16:26:28.196Z,23.10
2022-09-21T16:29:19.275Z,23.10
2022-09-21T16:31:50.397Z,23.00
2022-09-21T16:34:32.965Z,22.90
2022-09-21T16:37:02.689Z,22.70
2022-09-21T16:39:32.123Z,22.80
2022-09-21T16:42:03.642Z,22.70
2022-09-21T16:44:34.333Z,22.60
2022-09-21T16:47:03.697Z,22.50
2022-09-21T16:49:35.610Z,22.50
2022-09-21T16:52:04.083Z,22.40
2022-09-21T16:54:34.431Z,22.30
2022-09-21T16:57:03.497Z,22.20
2022-09-21T16:59:33.118Z,22.10
2022-09-21T17:02:05.119Z,22.00
2022-09-21T17:04:34.457Z,21.90
2022-09-21T17:07:03.282Z,21.80
2022-09-21T17:09:35.300Z,21.60
2022-09-21T17:12:04.213Z,21.50
2022-09-21T17:14:35.197Z,21.40
2022-09-21T17:17:06.002Z,21.20
2022-09-21T17:19:34.771Z,21.10
2022-09-21T17:22:04.144Z,20.90
2022-09-21T17:24:49.842Z,20.70
2022-09-21T17:27:19.975Z,20.60
2022-09-21T17:29:49.210Z,20.50
2022-09-21T17:32:20.141Z,20.30
2022-09-21T17:34:50.222Z,20.10
2022-09-21T17:37:18.284Z,19.90
2022-09-21T17:39:48.423Z,19.80
2022-09-21T17:42:18.965Z,19.60
2022-09-21T17:45:01.615Z,19.40
2022-09-21T17:47:33.172Z,19.20
2022-09-21T17:50:19.493Z,19.00
2022-09-21T17:53:05.969Z,18.80
2022-09-21T17:55:36.225Z,18.60
2022-09-21T17:58:17.704Z,18.40
2022-09-21T18:00:51.164Z,18.20
2022-09-21T18:03:22.748Z,18.00
2022-09-21T18:05:52.690Z,17.90
2022-09-21T18:08:21.543Z,17.70
2022-09-21T18:10:58.880Z,17.60
2022-09-21T18:13:33.650Z,17.40
2022-09-21T18:16:15.734Z,17.30
2022-09-21T18:18:46.724Z,17.20
2022-09-21T18:21:19.182Z,17.00
2022-09-21T18:24:14.761Z,16.90
2022-09-21T18:26:45.010Z,16.80
2022-09-21T18:29:41.816Z,16.70
2022-09-21T18:32:47.019Z,16.60
2022-09-21T18:35:44.910Z,16.40
2022-09-21T18:38:36.501Z,16.30
2022-09-21T18:41:34.221Z,16.20
2022-09-21T18:44:28.988Z,16.10
2022-09-21T18:47:21.123Z,16.00
2022-09-21T18:50:19.106Z,15.90
2022-09-21T18:53:13.486Z,15.80
2022-09-21T18:56:02.721Z,15.70
2022-09-21T18:58:51.795Z,15.70
2022-09-21T19:01:42.561Z,15.60
2022-09-21T19:04:31.678Z,15.50
2022-09-21T19:07:27.835Z,15.50
2022-09-21T19:10:19.696Z,15.40
2022-09-21T19:13:27.673Z,15.40
2022-09-21T19:16:27.689Z,15.30
2022-09-21T19:19:26.913Z,15.30
2022-09-21T19:22:17.863Z,15.30
2022-09-21T19:25:09.926Z,15.30
2022-09-21T19:28:01.263Z,15.20
2022-09-21T19:30:52.012Z,15.20
2022-09-21T19:33:56.192Z,15.20
2022-09-21T19:36:47.092Z,15.10
2022-09-21T19:39:36.693Z,15.10
2022-09-21T19:42:30.320Z,15.10
2022-09-21T19:45:23.621Z,15.10
2022-09-21T19:48:14.642Z,15.10
2022-09-21T19:51:03.073Z,15.10
2022-09-21T19:54:13.439Z,15.00
2022-09-21T19:57:20.296Z,15.00
2022-09-21T20:00:12.508Z,15.00
2022-09-21T20:03:04.765Z,15.00
2022-09-21T20:05:57.157Z,15.00
2022-09-21T20:08:52.681Z,15.00
2022-09-21T20:11:45.954Z,15.00
2022-09-21T20:14:37.267Z,15.00
2022-09-21T20:17:32.326Z,15.00
2022-09-21T20:20:23.944Z,14.90
2022-09-21T20:23:12.825Z,14.90
2022-09-21T20:26:06.849Z,14.90
2022-09-21T20:28:56.267Z,14.90
2022-09-21T20:31:44.699Z,14.80
2022-09-21T20:34:33.096Z,14.80
2022-09-21T20:37:23.616Z,14.80
2022-09-21T20:40:13.185Z,14.80
2022-09-21T20:43:03.049Z,14.80
2022-09-21T20:45:51.617Z,14.70
2022-09-21T20:48:40.363Z,14.70
2022-09-21T20:51:28.752Z,14.70
2022-09-21T20:54:17.291Z,14.60
2022-09-21T20:57:05.784Z,14.60
2022-09-21T20:59:55.559Z,14.60
2022-09-21T21:02:44.063Z,14.60
2022-09-21T21:05:32.724Z,14.60
2022-09-21T21:08:21.109Z,14.60
2022-09-21T21:11:10.705Z,14.50
2022-09-21T21:13:59.334Z,14.50
2022-09-21T21:16:49.318Z,14.60
2022-09-21T21:19:37.755Z,14.50
2022-09-21T21:22:26.259Z,14.60
2022-09-21T21:25:14.787Z,14.60
2022-09-21T21:28:03.418Z,14.60
2022-09-21T21:30:53.729Z,14.60
2022-09-21T21:33:43.532Z,14.60
2022-09-21T21:36:32.280Z,14.60
2022-09-21T21:39:20.656Z,14.60
2022-09-21T21:42:09.129Z,14.60
2022-09-21T21:44:57.476Z,14.60
2022-09-21T21:47:46.000Z,14.50
2022-09-21T21:50:35.870Z,14.50
2022-09-21T21:53:24.397Z,14.50
2022-09-21T21:56:14.793Z,14.50
2022-09-21T21:59:03.274Z,14.50
2022-09-21T22:01:53.123Z,14.50
2022-09-21T22:04:42.081Z,14.50
2022-09-21T22:07:32.022Z,14.50
2022-09-21T22:10:20.382Z,14.50
2022-09-21T22:13:08.767Z,14.50
2022-09-21T22:15:57.479Z,14.50
2022-09-21T22:18:46.256Z,14.50
2022-09-21T22:21:39.212Z,14.50
2022-09-21T22:24:29.586Z,14.50
2022-09-21T22:27:17.965Z,14.50
2022-09-21T22:30:08.341Z,14.50
2022-09-21T22:32:56.690Z,14.50
2022-09-21T22:35:45.084Z,14.50
2022-09-21T22:38:33.948Z,14.50
2022-09-21T22:41:25.011Z,14.50
2022-09-21T22:44:13.370Z,14.70
2022-09-21T22:47:01.773Z,14.60
2022-09-21T22:49:50.157Z,14.60
2022-09-21T22:52:38.495Z,14.60
2022-09-21T22:55:26.849Z,14.60
2022-09-21T22:58:16.636Z,14.60
2022-09-21T23:01:10.721Z,14.60
2022-09-21T23:04:00.575Z,14.60
2022-09-21T23:06:49.547Z,14.60
2022-09-21T23:09:37.930Z,14.60
2022-09-21T23:12:26.362Z,14.60
2022-09-21T23:15:16.535Z,14.60
2022-09-21T23:18:04.992Z,14.60
2022-09-21T23:21:00.001Z,14.60
2022-09-21T23:23:48.699Z,14.60
2022-09-21T23:26:37.148Z,14.60
2022-09-21T23:29:25.496Z,14.60
2022-09-21T23:32:15.247Z,14.50
2022-09-21T23:35:03.618Z,14.50
2022-09-21T23:37:52.273Z,14.50
2022-09-21T23:40:40.661Z,14.50
2022-09-21T23:43:29.116Z,14.50
2022-09-21T23:46:19.324Z,14.50
2022-09-21T23:49:09.764Z,14.50
2022-09-21T23:51:58.186Z,14.50
2022-09-21T23:54:46.677Z,14.50
2022-09-21T23:57:35.207Z,14.50
